sensor_id;sensor_type;location;lat;lon;timestamp;pressure;altitude;pressure_sealevel;temperature;humidity
49030;BME280;43337;52.070;4.508;2024-02-21T00:00:22;102278.50;;;8.64;100.00
49030;BME280;43337;52.070;4.508;2024-02-21T00:02:48;102314.13;;;8.89;100.00
49030;BME280;43337;52.070;4.508;2024-02-21T00:05:15;102260.22;;;8.56;100.00
49030;BME280;43337;52.070;4.508;2024-02-21T00:07:42;102282.75;;;8.77;100.00
49030;BME280;43337;52.070;4.508;2024-02-21T00:10:13;102286.22;;;8.79;100.00
49030;BME280;43337;52.070;4.508;2024-02-21T00:12:40;102259.34;;;8.59;100.00
49030;BME280;43337;52.070;4.508;2024-02-21T00:15:07;102314.94;;;8.94;100.00
49030;BME280;43337;52.070;4.508;2024-02-21T00:17:34;102257.59;;;8.56;100.00
49030;BME280;43337;52.070;4.508;2024-02-21T00:20:03;102315.78;;;8.96;100.00
49030;BME280;43337;52.070;4.508;2024-02-21T00:22:33;102282.75;;;8.75;100.00
49030;BME280;43337;52.070;4.508;2024-02-21T00:24:59;102273.13;;;8.76;100.00
49030;BME280;43337;52.070;4.508;2024-02-21T00:27:29;102288.78;;;8.84;100.00
49030;BME280;43337;52.070;4.508;2024-02-21T00:29:54;102335.03;;;8.97;100.00
49030;BME280;43337;52.070;4.508;2024-02-21T00:32:20;102325.47;;;8.93;100.00
49030;BME280;43337;52.070;4.508;2024-02-21T00:34:56;102275.81;;;8.68;100.00
49030;BME280;43337;52.070;4.508;2024-02-21T00:37:22;102273.19;;;8.68;100.00
49030;BME280;43337;52.070;4.508;2024-02-21T00:39:50;102301.00;;;8.86;100.00
49030;BME280;43337;52.070;4.508;2024-02-21T00:42:15;102260.13;;;8.64;100.00
49030;BME280;43337;52.070;4.508;2024-02-21T00:44:42;102288.81;;;8.82;100.00
49030;BME280;43337;52.070;4.508;2024-02-21T00:47:11;102318.34;;;9.01;100.00
49030;BME280;43337;52.070;4.508;2024-02-21T00:49:38;102290.53;;;8.85;100.00
49030;BME280;43337;52.070;4.508;2024-02-21T00:52:05;102284.38;;;8.89;100.00
49030;BME280;43337;52.070;4.508;2024-02-21T00:54:30;102279.97;;;8.88;100.00
49030;BME280;43337;52.070;4.508;2024-02-21T00:56:56;102287.78;;;8.94;100.00
49030;BME280;43337;52.070;4.508;2024-02-21T00:59:21;102311.28;;;9.08;100.00
49030;BME280;43337;52.070;4.508;2024-02-21T01:01:47;102287.72;;;9.00;100.00
49030;BME280;43337;52.070;4.508;2024-02-21T01:04:12;102277.19;;;9.01;100.00
49030;BME280;43337;52.070;4.508;2024-02-21T01:06:41;102279.75;;;9.06;100.00
49030;BME280;43337;52.070;4.508;2024-02-21T01:09:09;102288.50;;;9.07;100.00
49030;BME280;43337;52.070;4.508;2024-02-21T01:11:38;102264.19;;;8.91;100.00
49030;BME280;43337;52.070;4.508;2024-02-21T01:14:09;102287.63;;;9.08;100.00
49030;BME280;43337;52.070;4.508;2024-02-21T01:16:37;102282.34;;;9.09;100.00
49030;BME280;43337;52.070;4.508;2024-02-21T01:19:05;102283.22;;;9.10;100.00
49030;BME280;43337;52.070;4.508;2024-02-21T01:21:30;102272.69;;;9.10;100.00
49030;BME280;43337;52.070;4.508;2024-02-21T01:23:57;102266.56;;;9.09;100.00
49030;BME280;43337;52.070;4.508;2024-02-21T01:26:22;102263.09;;;9.09;100.00
49030;BME280;43337;52.070;4.508;2024-02-21T01:28:48;102262.22;;;9.08;100.00
49030;BME280;43337;52.070;4.508;2024-02-21T01:31:13;102260.47;;;9.09;100.00
49030;BME280;43337;52.070;4.508;2024-02-21T01:33:41;102253.47;;;9.06;100.00
49030;BME280;43337;52.070;4.508;2024-02-21T01:36:07;102237.81;;;8.98;100.00
49030;BME280;43337;52.070;4.508;2024-02-21T01:38:33;102234.31;;;8.99;100.00
49030;BME280;43337;52.070;4.508;2024-02-21T01:40:59;102250.88;;;9.04;100.00
49030;BME280;43337;52.070;4.508;2024-02-21T01:43:25;102248.25;;;9.04;100.00
49030;BME280;43337;52.070;4.508;2024-02-21T01:45:52;102231.81;;;8.92;100.00
49030;BME280;43337;52.070;4.508;2024-02-21T01:48:19;102262.25;;;9.05;100.00
49030;BME280;43337;52.070;4.508;2024-02-21T01:50:45;102261.34;;;9.06;100.00
49030;BME280;43337;52.070;4.508;2024-02-21T01:53:13;102250.84;;;9.08;100.00
49030;BME280;43337;52.070;4.508;2024-02-21T01:55:45;102242.09;;;9.07;100.00
49030;BME280;43337;52.070;4.508;2024-02-21T01:58:15;102230.69;;;9.08;100.00
49030;BME280;43337;52.070;4.508;2024-02-21T02:00:42;102228.06;;;9.08;100.00
49030;BME280;43337;52.070;4.508;2024-02-21T02:03:12;102222.88;;;9.03;100.00
49030;BME280;43337;52.070;4.508;2024-02-21T02:05:47;102214.19;;;8.98;100.00
49030;BME280;43337;52.070;4.508;2024-02-21T02:08:14;102208.91;;;9.00;100.00
49030;BME280;43337;52.070;4.508;2024-02-21T02:10:40;102224.56;;;9.08;100.00
49030;BME280;43337;52.070;4.508;2024-02-21T02:13:05;102229.00;;;9.04;100.00
49030;BME280;43337;52.070;4.508;2024-02-21T02:15:46;102208.03;;;9.01;100.00
49030;BME280;43337;52.070;4.508;2024-02-21T02:18:13;102199.31;;;8.97;100.00
49030;BME280;43337;52.070;4.508;2024-02-21T02:20:39;102213.16;;;9.09;100.00
49030;BME280;43337;52.070;4.508;2024-02-21T02:25:42;102200.94;;;9.06;100.00
49030;BME280;43337;52.070;4.508;2024-02-21T02:28:09;102197.44;;;9.05;100.00
49030;BME280;43337;52.070;4.508;2024-02-21T02:30:37;102206.16;;;9.09;100.00
49030;BME280;43337;52.070;4.508;2024-02-21T02:33:06;102188.72;;;9.02;100.00
49030;BME280;43337;52.070;4.508;2024-02-21T02:35:32;102210.56;;;9.07;100.00
49030;BME280;43337;52.070;4.508;2024-02-21T02:38:00;102187.88;;;9.01;100.00
49030;BME280;43337;52.070;4.508;2024-02-21T02:40:25;102205.31;;;9.07;100.00
49030;BME280;43337;52.070;4.508;2024-02-21T02:42:51;102174.09;;;8.86;100.00
49030;BME280;43337;52.070;4.508;2024-02-21T02:45:18;102189.59;;;9.02;100.00
49030;BME280;43337;52.070;4.508;2024-02-21T02:47:47;102173.09;;;8.96;100.00
49030;BME280;43337;52.070;4.508;2024-02-21T02:50:13;102164.28;;;8.98;100.00
49030;BME280;43337;52.070;4.508;2024-02-21T02:52:40;102153.91;;;8.89;100.00
49030;BME280;43337;52.070;4.508;2024-02-21T02:55:05;102172.06;;;9.04;100.00
49030;BME280;43337;52.070;4.508;2024-02-21T02:57:34;102138.13;;;8.91;100.00
49030;BME280;43337;52.070;4.508;2024-02-21T03:00:00;102162.47;;;9.02;100.00
49030;BME280;43337;52.070;4.508;2024-02-21T03:02:25;102139.81;;;8.95;100.00
49030;BME280;43337;52.070;4.508;2024-02-21T03:04:50;102142.44;;;8.96;100.00
49030;BME280;43337;52.070;4.508;2024-02-21T03:07:16;102148.50;;;9.00;100.00
49030;BME280;43337;52.070;4.508;2024-02-21T03:09:42;102148.50;;;9.00;100.00
49030;BME280;43337;52.070;4.508;2024-02-21T03:12:10;102130.19;;;8.94;100.00
49030;BME280;43337;52.070;4.508;2024-02-21T03:14:36;102140.63;;;9.00;100.00
49030;BME280;43337;52.070;4.508;2024-02-21T03:17:02;102138.88;;;9.00;100.00
49030;BME280;43337;52.070;4.508;2024-02-21T03:19:29;102112.59;;;9.00;100.00
49030;BME280;43337;52.070;4.508;2024-02-21T03:21:55;102117.84;;;9.00;100.00
49030;BME280;43337;52.070;4.508;2024-02-21T03:24:20;102104.88;;;8.90;100.00
49030;BME280;43337;52.070;4.508;2024-02-21T03:26:46;102111.72;;;8.98;100.00
49030;BME280;43337;52.070;4.508;2024-02-21T03:29:16;102095.28;;;8.87;100.00
49030;BME280;43337;52.070;4.508;2024-02-21T03:31:45;102121.38;;;8.99;100.00
49030;BME280;43337;52.070;4.508;2024-02-21T03:34:10;102114.34;;;9.00;100.00
49030;BME280;43337;52.070;4.508;2024-02-21T03:36:37;102099.53;;;8.96;100.00
49030;BME280;43337;52.070;4.508;2024-02-21T03:39:03;102102.13;;;8.97;100.00
49030;BME280;43337;52.070;4.508;2024-02-21T03:41:30;102098.69;;;8.94;100.00
49030;BME280;43337;52.070;4.508;2024-02-21T03:43:55;102103.88;;;8.97;100.00
49030;BME280;43337;52.070;4.508;2024-02-21T03:46:23;102121.34;;;9.01;100.00
49030;BME280;43337;52.070;4.508;2024-02-21T03:48:48;102112.59;;;9.00;100.00
49030;BME280;43337;52.070;4.508;2024-02-21T03:51:15;102072.63;;;8.80;100.00
49030;BME280;43337;52.070;4.508;2024-02-21T03:53:41;102080.44;;;8.85;100.00
49030;BME280;43337;52.070;4.508;2024-02-21T03:56:06;102073.44;;;8.84;100.00
49030;BME280;43337;52.070;4.508;2024-02-21T03:58:33;102046.47;;;8.72;100.00
49030;BME280;43337;52.070;4.508;2024-02-21T04:01:03;102086.41;;;8.96;100.00
49030;BME280;43337;52.070;4.508;2024-02-21T04:03:30;102096.84;;;8.99;100.00
49030;BME280;43337;52.070;4.508;2024-02-21T04:05:56;102091.59;;;8.99;100.00
49030;BME280;43337;52.070;4.508;2024-02-21T04:08:22;102089.06;;;8.93;100.00
49030;BME280;43337;52.070;4.508;2024-02-21T04:10:48;102108.25;;;8.98;100.00
49030;BME280;43337;52.070;4.508;2024-02-21T04:13:14;102107.41;;;8.94;100.00
49030;BME280;43337;52.070;4.508;2024-02-21T04:15:39;102071.78;;;8.78;100.00
49030;BME280;43337;52.070;4.508;2024-02-21T04:18:07;102106.50;;;8.97;100.00
49030;BME280;43337;52.070;4.508;2024-02-21T04:20:35;102076.13;;;8.79;100.00
49030;BME280;43337;52.070;4.508;2024-02-21T04:23:01;102091.66;;;8.96;100.00
49030;BME280;43337;52.070;4.508;2024-02-21T04:25:26;102084.72;;;8.90;100.00
49030;BME280;43337;52.070;4.508;2024-02-21T04:27:51;102085.59;;;8.91;100.00
49030;BME280;43337;52.070;4.508;2024-02-21T04:30:17;102048.22;;;8.73;100.00
49030;BME280;43337;52.070;4.508;2024-02-21T04:32:43;102083.78;;;8.94;100.00
49030;BME280;43337;52.070;4.508;2024-02-21T04:35:09;102074.19;;;8.93;100.00
49030;BME280;43337;52.070;4.508;2024-02-21T04:37:35;102061.16;;;8.86;100.00
49030;BME280;43337;52.070;4.508;2024-02-21T04:40:00;102066.28;;;8.93;100.00
49030;BME280;43337;52.070;4.508;2024-02-21T04:42:27;102055.06;;;8.85;100.00
49030;BME280;43337;52.070;4.508;2024-02-21T04:44:52;102022.91;;;8.69;100.00
49030;BME280;43337;52.070;4.508;2024-02-21T04:47:18;102070.75;;;8.88;100.00
49030;BME280;43337;52.070;4.508;2024-02-21T04:49:45;102054.16;;;8.86;100.00
49030;BME280;43337;52.070;4.508;2024-02-21T04:52:12;102024.72;;;8.66;100.00
49030;BME280;43337;52.070;4.508;2024-02-21T04:54:38;102056.81;;;8.85;100.00
49030;BME280;43337;52.070;4.508;2024-02-21T04:57:03;102051.59;;;8.80;100.00
49030;BME280;43337;52.070;4.508;2024-02-21T04:59:30;102015.94;;;8.67;100.00
49030;BME280;43337;52.070;4.508;2024-02-21T05:01:55;102026.38;;;8.71;100.00
49030;BME280;43337;52.070;4.508;2024-02-21T05:04:21;102002.06;;;8.57;100.00
49030;BME280;43337;52.070;4.508;2024-02-21T05:06:46;102031.50;;;8.80;100.00
49030;BME280;43337;52.070;4.508;2024-02-21T05:09:11;102021.00;;;8.80;100.00
49030;BME280;43337;52.070;4.508;2024-02-21T05:11:37;101986.28;;;8.60;100.00
49030;BME280;43337;52.070;4.508;2024-02-21T05:14:03;102019.22;;;8.79;100.00
49030;BME280;43337;52.070;4.508;2024-02-21T05:16:31;101986.28;;;8.60;100.00
49030;BME280;43337;52.070;4.508;2024-02-21T05:18:57;102007.94;;;8.74;100.00
49030;BME280;43337;52.070;4.508;2024-02-21T05:21:25;102020.16;;;8.77;100.00
49030;BME280;43337;52.070;4.508;2024-02-21T05:23:51;102001.84;;;8.72;100.00
49030;BME280;43337;52.070;4.508;2024-02-21T05:26:22;101951.50;;;8.47;100.00
49030;BME280;43337;52.070;4.508;2024-02-21T05:28:52;101995.72;;;8.73;100.00
49030;BME280;43337;52.070;4.508;2024-02-21T05:31:18;101957.53;;;8.52;100.00
49030;BME280;43337;52.070;4.508;2024-02-21T05:33:54;101986.97;;;8.71;100.00
49030;BME280;43337;52.070;4.508;2024-02-21T05:36:21;101985.25;;;8.70;100.00
49030;BME280;43337;52.070;4.508;2024-02-21T05:38:47;101974.78;;;8.69;100.00
49030;BME280;43337;52.070;4.508;2024-02-21T05:41:15;101969.59;;;8.66;100.00
49030;BME280;43337;52.070;4.508;2024-02-21T05:43:41;101944.31;;;8.59;100.00
49030;BME280;43337;52.070;4.508;2024-02-21T05:46:08;101939.25;;;8.49;100.00
49030;BME280;43337;52.070;4.508;2024-02-21T05:48:34;101937.47;;;8.50;100.00
49030;BME280;43337;52.070;4.508;2024-02-21T05:51:01;101946.94;;;8.57;100.00
49030;BME280;43337;52.070;4.508;2024-02-21T05:53:30;101953.84;;;8.64;100.00
49030;BME280;43337;52.070;4.508;2024-02-21T05:55:55;101944.19;;;8.66;100.00
49030;BME280;43337;52.070;4.508;2024-02-21T05:58:26;101951.22;;;8.66;100.00
49030;BME280;43337;52.070;4.508;2024-02-21T06:00:52;101911.28;;;8.45;100.00
49030;BME280;43337;52.070;4.508;2024-02-21T06:03:17;101905.16;;;8.46;100.00
49030;BME280;43337;52.070;4.508;2024-02-21T06:05:43;101944.19;;;8.65;100.00
49030;BME280;43337;52.070;4.508;2024-02-21T06:08:08;101931.06;;;8.66;100.00
49030;BME280;43337;52.070;4.508;2024-02-21T06:10:34;101930.34;;;8.58;100.00
49030;BME280;43337;52.070;4.508;2024-02-21T06:12:59;101921.69;;;8.51;100.00
49030;BME280;43337;52.070;4.508;2024-02-21T06:15:24;101925.22;;;8.50;100.00
49030;BME280;43337;52.070;4.508;2024-02-21T06:17:50;101920.88;;;8.48;100.00
49030;BME280;43337;52.070;4.508;2024-02-21T06:20:18;101953.88;;;8.63;100.00
49030;BME280;43337;52.070;4.508;2024-02-21T06:22:45;101967.81;;;8.65;100.00
49030;BME280;43337;52.070;4.508;2024-02-21T06:25:11;101950.47;;;8.58;100.00
49030;BME280;43337;52.070;4.508;2024-02-21T06:27:37;101973.09;;;8.65;100.00
49030;BME280;43337;52.070;4.508;2024-02-21T06:30:05;101927.91;;;8.46;100.00
49030;BME280;43337;52.070;4.508;2024-02-21T06:32:32;101964.34;;;8.64;100.00
49030;BME280;43337;52.070;4.508;2024-02-21T06:35:00;101921.00;;;8.40;100.00
49030;BME280;43337;52.070;4.508;2024-02-21T06:37:27;101937.34;;;8.58;100.00
49030;BME280;43337;52.070;4.508;2024-02-21T06:39:53;101945.09;;;8.64;100.00
49030;BME280;43337;52.070;4.508;2024-02-21T06:42:20;101950.41;;;8.62;100.00
49030;BME280;43337;52.070;4.508;2024-02-21T06:44:46;101939.00;;;8.63;100.00
49030;BME280;43337;52.070;4.508;2024-02-21T06:47:15;101923.41;;;8.52;100.00
49030;BME280;43337;52.070;4.508;2024-02-21T06:49:41;101914.72;;;8.50;100.00
49030;BME280;43337;52.070;4.508;2024-02-21T06:52:07;101923.28;;;8.62;100.00
49030;BME280;43337;52.070;4.508;2024-02-21T06:54:32;101918.91;;;8.61;100.00
49030;BME280;43337;52.070;4.508;2024-02-21T06:56:58;101925.06;;;8.60;100.00
49030;BME280;43337;52.070;4.508;2024-02-21T06:59:23;101896.44;;;8.46;100.00
49030;BME280;43337;52.070;4.508;2024-02-21T07:01:51;101879.88;;;8.41;100.00
49030;BME280;43337;52.070;4.508;2024-02-21T07:04:16;101910.19;;;8.59;100.00
49030;BME280;43337;52.070;4.508;2024-02-21T07:06:45;101903.22;;;8.58;100.00
49030;BME280;43337;52.070;4.508;2024-02-21T07:09:10;101904.09;;;8.58;100.00
49030;BME280;43337;52.070;4.508;2024-02-21T07:11:36;101890.16;;;8.53;100.00
49030;BME280;43337;52.070;4.508;2024-02-21T07:14:03;101902.31;;;8.59;100.00
49030;BME280;43337;52.070;4.508;2024-02-21T07:16:29;101885.81;;;8.53;100.00
49030;BME280;43337;52.070;4.508;2024-02-21T07:18:55;101889.22;;;8.57;100.00
49030;BME280;43337;52.070;4.508;2024-02-21T07:21:20;101879.59;;;8.56;100.00
49030;BME280;43337;52.070;4.508;2024-02-21T07:23:46;101873.44;;;8.59;100.00
49030;BME280;43337;52.070;4.508;2024-02-21T07:26:11;101879.53;;;8.61;100.00
49030;BME280;43337;52.070;4.508;2024-02-21T07:28:36;101838.75;;;8.43;100.00
49030;BME280;43337;52.070;4.508;2024-02-21T07:31:02;101844.84;;;8.43;100.00
49030;BME280;43337;52.070;4.508;2024-02-21T07:33:28;101862.94;;;8.59;100.00
49030;BME280;43337;52.070;4.508;2024-02-21T07:35:54;101823.94;;;8.37;100.00
49030;BME280;43337;52.070;4.508;2024-02-21T07:38:20;101826.56;;;8.39;100.00
49030;BME280;43337;52.070;4.508;2024-02-21T07:40:46;101852.41;;;8.60;100.00
49030;BME280;43337;52.070;4.508;2024-02-21T07:43:12;101832.59;;;8.44;100.00
49030;BME280;43337;52.070;4.508;2024-02-21T07:45:37;101846.28;;;8.61;100.00
49030;BME280;43337;52.070;4.508;2024-02-21T07:48:05;101840.97;;;8.64;100.00
49030;BME280;43337;52.070;4.508;2024-02-21T07:50:31;101808.03;;;8.48;100.00
49030;BME280;43337;52.070;4.508;2024-02-21T07:52:57;101807.97;;;8.51;100.00
49030;BME280;43337;52.070;4.508;2024-02-21T07:55:23;101817.47;;;8.58;100.00
49030;BME280;43337;52.070;4.508;2024-02-21T07:57:52;101801.84;;;8.50;100.00
49030;BME280;43337;52.070;4.508;2024-02-21T08:00:18;101811.25;;;8.62;100.00
49030;BME280;43337;52.070;4.508;2024-02-21T08:02:48;101821.72;;;8.65;100.00
49030;BME280;43337;52.070;4.508;2024-02-21T08:05:15;101826.06;;;8.65;100.00
49030;BME280;43337;52.070;4.508;2024-02-21T08:07:44;101813.91;;;8.61;100.00
49030;BME280;43337;52.070;4.508;2024-02-21T08:10:10;101820.81;;;8.65;100.00
49030;BME280;43337;52.070;4.508;2024-02-21T08:12:35;101818.19;;;8.65;100.00
49030;BME280;43337;52.070;4.508;2024-02-21T08:15:04;101767.88;;;8.43;100.00
49030;BME280;43337;52.070;4.508;2024-02-21T08:17:32;101811.22;;;8.64;100.00
49030;BME280;43337;52.070;4.508;2024-02-21T08:20:12;101803.38;;;8.62;100.00
49030;BME280;43337;52.070;4.508;2024-02-21T08:22:46;101801.66;;;8.61;100.00
49030;BME280;43337;52.070;4.508;2024-02-21T08:25:13;101795.59;;;8.58;100.00
49030;BME280;43337;52.070;4.508;2024-02-21T08:27:42;101786.06;;;8.52;100.00
49030;BME280;43337;52.070;4.508;2024-02-21T08:30:10;101786.88;;;8.55;100.00
49030;BME280;43337;52.070;4.508;2024-02-21T08:32:36;101749.59;;;8.38;100.00
49030;BME280;43337;52.070;4.508;2024-02-21T08:35:01;101749.50;;;8.43;100.00
49030;BME280;43337;52.070;4.508;2024-02-21T08:37:27;101769.41;;;8.53;100.00
49030;BME280;43337;52.070;4.508;2024-02-21T08:39:52;101766.81;;;8.53;100.00
49030;BME280;43337;52.070;4.508;2024-02-21T08:42:18;101741.69;;;8.40;100.00
49030;BME280;43337;52.070;4.508;2024-02-21T08:44:44;101779.88;;;8.56;100.00
49030;BME280;43337;52.070;4.508;2024-02-21T08:47:09;101770.22;;;8.58;100.00
49030;BME280;43337;52.070;4.508;2024-02-21T08:49:38;101764.13;;;8.58;100.00
49030;BME280;43337;52.070;4.508;2024-02-21T08:52:04;101753.69;;;8.53;100.00
49030;BME280;43337;52.070;4.508;2024-02-21T08:54:30;101737.16;;;8.49;100.00
49030;BME280;43337;52.070;4.508;2024-02-21T08:57:01;101702.41;;;8.33;100.00
49030;BME280;43337;52.070;4.508;2024-02-21T08:59:28;101697.16;;;8.35;100.00
49030;BME280;43337;52.070;4.508;2024-02-21T09:01:56;101698.81;;;8.42;100.00
49030;BME280;43337;52.070;4.508;2024-02-21T09:04:24;101699.66;;;8.43;100.00
49030;BME280;43337;52.070;4.508;2024-02-21T09:06:53;101695.22;;;8.45;100.00
49030;BME280;43337;52.070;4.508;2024-02-21T09:09:23;101710.72;;;8.59;100.00
49030;BME280;43337;52.070;4.508;2024-02-21T09:11:52;101667.38;;;8.39;100.00
49030;BME280;43337;52.070;4.508;2024-02-21T09:14:19;101703.47;;;8.70;100.00
49030;BME280;43337;52.070;4.508;2024-02-21T09:16:45;101697.22;;;8.75;100.00
49030;BME280;43337;52.070;4.508;2024-02-21T09:19:10;101702.41;;;8.78;100.00
49030;BME280;43337;52.070;4.508;2024-02-21T09:21:37;101693.56;;;8.83;100.00
49030;BME280;43337;52.070;4.508;2024-02-21T09:24:11;101694.44;;;8.85;100.00
49030;BME280;43337;52.070;4.508;2024-02-21T09:26:38;101658.78;;;8.73;100.00
49030;BME280;43337;52.070;4.508;2024-02-21T09:29:04;101684.66;;;8.90;100.00
49030;BME280;43337;52.070;4.508;2024-02-21T09:31:36;101665.38;;;8.91;100.00
49030;BME280;43337;52.070;4.508;2024-02-21T09:34:04;101637.63;;;8.80;100.00
49030;BME280;43337;52.070;4.508;2024-02-21T09:36:32;101619.44;;;8.71;100.00
49030;BME280;43337;52.070;4.508;2024-02-21T09:38:57;101601.13;;;8.68;100.00
49030;BME280;43337;52.070;4.508;2024-02-21T09:41:27;101641.69;;;8.94;100.00
49030;BME280;43337;52.070;4.508;2024-02-21T09:43:54;101598.41;;;8.73;100.00
49030;BME280;43337;52.070;4.508;2024-02-21T09:46:24;101588.59;;;8.79;100.00
49030;BME280;43337;52.070;4.508;2024-02-21T09:51:34;101615.06;;;9.09;100.00
49030;BME280;43337;52.070;4.508;2024-02-21T09:54:04;101616.75;;;9.12;100.00
49030;BME280;43337;52.070;4.508;2024-02-21T09:56:34;101580.50;;;8.90;100.00
49030;BME280;43337;52.070;4.508;2024-02-21T09:59:02;101598.38;;;9.12;100.00
49030;BME280;43337;52.070;4.508;2024-02-21T10:01:32;101603.44;;;9.19;100.00
49030;BME280;43337;52.070;4.508;2024-02-21T10:04:04;101586.91;;;9.16;100.00
49030;BME280;43337;52.070;4.508;2024-02-21T10:06:30;101562.59;;;9.06;100.00
49030;BME280;43337;52.070;4.508;2024-02-21T10:08:55;101572.72;;;9.23;100.00
49030;BME280;43337;52.070;4.508;2024-02-21T10:11:25;101558.78;;;9.19;100.00
49030;BME280;43337;52.070;4.508;2024-02-21T10:13:51;101557.72;;;9.26;100.00
49030;BME280;43337;52.070;4.508;2024-02-21T10:16:18;101535.94;;;9.21;100.00
49030;BME280;43337;52.070;4.508;2024-02-21T10:18:43;101499.44;;;9.11;100.00
49030;BME280;43337;52.070;4.508;2024-02-21T10:21:08;101485.50;;;9.09;100.00
49030;BME280;43337;52.070;4.508;2024-02-21T10:23:48;101476.75;;;9.08;100.00
49030;BME280;43337;52.070;4.508;2024-02-21T10:26:18;101538.16;;;9.38;100.00
49030;BME280;43337;52.070;4.508;2024-02-21T10:28:45;101537.19;;;9.41;100.00
49030;BME280;43337;52.070;4.508;2024-02-21T10:31:24;101537.13;;;9.44;100.00
49030;BME280;43337;52.070;4.508;2024-02-21T10:33:57;101540.66;;;9.43;100.00
49030;BME280;43337;52.070;4.508;2024-02-21T10:36:26;101512.28;;;9.23;100.00
49030;BME280;43337;52.070;4.508;2024-02-21T10:38:52;101532.97;;;9.35;100.00
49030;BME280;43337;52.070;4.508;2024-02-21T10:41:19;101544.34;;;9.36;100.00
49030;BME280;43337;52.070;4.508;2024-02-21T10:43:49;101532.19;;;9.32;100.00
49030;BME280;43337;52.070;4.508;2024-02-21T10:46:19;101540.00;;;9.35;100.00
49030;BME280;43337;52.070;4.508;2024-02-21T10:48:48;101522.69;;;9.26;100.00
49030;BME280;43337;52.070;4.508;2024-02-21T10:51:20;101499.41;;;9.12;100.00
49030;BME280;43337;52.070;4.508;2024-02-21T10:56:32;101505.25;;;9.23;100.00
49030;BME280;43337;52.070;4.508;2024-02-21T10:59:03;101499.00;;;9.27;100.00
49030;BME280;43337;52.070;4.508;2024-02-21T11:01:29;101512.94;;;9.31;100.00
49030;BME280;43337;52.070;4.508;2024-02-21T11:04:10;101493.69;;;9.31;100.00
49030;BME280;43337;52.070;4.508;2024-02-21T11:06:38;101481.69;;;9.20;100.00
49030;BME280;43337;52.070;4.508;2024-02-21T11:09:07;101464.22;;;9.18;100.00
49030;BME280;43337;52.070;4.508;2024-02-21T11:11:38;101467.31;;;9.34;100.00
49030;BME280;43337;52.070;4.508;2024-02-21T11:14:11;101470.69;;;9.39;100.00
49030;BME280;43337;52.070;4.508;2024-02-21T11:16:46;101441.91;;;9.34;100.00
49030;BME280;43337;52.070;4.508;2024-02-21T11:22:14;101458.91;;;9.52;100.00
49030;BME280;43337;52.070;4.508;2024-02-21T11:24:43;101438.31;;;9.37;100.00
49030;BME280;43337;52.070;4.508;2024-02-21T11:27:33;101441.25;;;9.57;100.00
49030;BME280;43337;52.070;4.508;2024-02-21T11:30:04;101416.16;;;9.45;100.00
49030;BME280;43337;52.070;4.508;2024-02-21T11:32:31;101378.47;;;9.46;100.00
49030;BME280;43337;52.070;4.508;2024-02-21T11:34:58;101395.56;;;9.61;100.00
49030;BME280;43337;52.070;4.508;2024-02-21T11:37:31;101400.41;;;9.75;100.00
49030;BME280;43337;52.070;4.508;2024-02-21T11:40:03;101399.41;;;9.79;100.00
49030;BME280;43337;52.070;4.508;2024-02-21T11:42:29;101388.81;;;9.82;100.00
49030;BME280;43337;52.070;4.508;2024-02-21T11:44:56;101369.00;;;9.70;100.00
49030;BME280;43337;52.070;4.508;2024-02-21T11:47:24;101399.91;;;9.92;100.00
49030;BME280;43337;52.070;4.508;2024-02-21T11:49:49;101347.03;;;9.73;100.00
49030;BME280;43337;52.070;4.508;2024-02-21T11:52:22;101374.34;;;9.95;100.00
49030;BME280;43337;52.070;4.508;2024-02-21T11:55:05;101359.47;;;9.96;100.00
49030;BME280;43337;52.070;4.508;2024-02-21T11:57:33;101356.06;;;9.92;100.00
49030;BME280;43337;52.070;4.508;2024-02-21T12:00:11;101352.56;;;9.92;100.00
49030;BME280;43337;52.070;4.508;2024-02-21T12:02:39;101316.09;;;9.81;100.00
49030;BME280;43337;52.070;4.508;2024-02-21T12:05:04;101324.69;;;9.86;100.00
49030;BME280;43337;52.070;4.508;2024-02-21T12:07:30;101326.28;;;9.92;100.00
49030;BME280;43337;52.070;4.508;2024-02-21T12:09:59;101291.75;;;9.74;100.00
49030;BME280;43337;52.070;4.508;2024-02-21T12:19:14;101268.00;;;9.76;100.00
49030;BME280;43337;52.070;4.508;2024-02-21T12:21:42;101269.50;;;9.85;100.00
49030;BME280;43337;52.070;4.508;2024-02-21T12:24:21;101253.91;;;9.78;100.00
49030;BME280;43337;52.070;4.508;2024-02-21T12:26:47;101234.00;;;9.71;100.00
49030;BME280;43337;52.070;4.508;2024-02-21T12:29:14;101209.88;;;9.59;100.00
49030;BME280;43337;52.070;4.508;2024-02-21T12:31:39;101245.34;;;9.72;100.00
49030;BME280;43337;52.070;4.508;2024-02-21T12:34:05;101221.84;;;9.67;100.00
49030;BME280;43337;52.070;4.508;2024-02-21T12:36:31;101190.13;;;9.45;100.00
49030;BME280;43337;52.070;4.508;2024-02-21T12:38:57;101223.69;;;9.65;100.00
49030;BME280;43337;52.070;4.508;2024-02-21T12:41:22;101217.59;;;9.63;100.00
49030;BME280;43337;52.070;4.508;2024-02-21T12:43:47;101200.22;;;9.59;100.00
49030;BME280;43337;52.070;4.508;2024-02-21T12:46:13;101194.16;;;9.57;100.00
49030;BME280;43337;52.070;4.508;2024-02-21T12:48:38;101207.56;;;9.49;100.00
49030;BME280;43337;52.070;4.508;2024-02-21T12:51:05;101176.34;;;9.39;100.00
49030;BME280;43337;52.070;4.508;2024-02-21T12:53:30;101194.66;;;9.42;100.00
49030;BME280;43337;52.070;4.508;2024-02-21T12:55:56;101177.13;;;9.42;100.00
49030;BME280;43337;52.070;4.508;2024-02-21T12:58:22;101201.47;;;9.47;100.00
49030;BME280;43337;52.070;4.508;2024-02-21T13:00:47;101147.94;;;9.23;100.00
49030;BME280;43337;52.070;4.508;2024-02-21T13:03:14;101189.41;;;9.42;100.00
49030;BME280;43337;52.070;4.508;2024-02-21T13:05:40;101189.41;;;9.42;100.00
49030;BME280;43337;52.070;4.508;2024-02-21T13:08:11;101171.03;;;9.40;100.00